Time;durP1;ratioP1;P1;durP2;ratioP2;P2;SDS_P1;SDS_P2;PMS_P1;PMS_P2;Temp;Humidity;BMP_temperature;BMP_pressure;BME280_temperature;BME280_humidity;BME280_pressure;Samples;Min_cycle;Max_cycle;Signal;HPM_P1;HPM_P2
2022/09/09 00:01:30;;;;;;;;;;;;;;;;;;5175352;27;20037;-43
2022/09/09 00:04:05;;;;;;;;;;;;;;;;;;5175240;27;19923;-47
2022/09/09 00:06:43;;;;;;;;;;;;;;;;;;5175260;27;19922;-44
2022/09/09 00:09:18;;;;;;;;;;;;;;;;;;5174827;27;19934;-45
2022/09/09 00:11:48;;;;;;;;;;;;;;;;;;5175829;27;20006;-42
2022/09/09 00:14:37;;;;;;;;;;;;;;;;;;5175255;27;20278;-45
2022/09/09 00:17:08;;;;;;;;;;;;;;;;;;5175222;27;19930;-42
2022/09/09 00:19:45;;;;;;;;;;;;;;;;;;5175011;27;19926;-45
2022/09/09 00:22:13;;;;;;;;;;;;;;;;;;5175072;27;19922;-44
2022/09/09 00:24:45;;;;;;;;;;;;;;;;;;5175005;27;19977;-43
2022/09/09 00:27:26;;;;;;;;;;;;;;;;;;5174734;27;19927;-48
2022/09/09 00:29:56;;;;;;;;;;;;;;;;;;5174767;27;19945;-43
2022/09/09 00:32:27;;;;;;;;;;;;;;;;;;5174907;27;19922;-43
2022/09/09 00:35:25;;;;;;;;;;;;;;;;;;5174903;27;20301;-42
2022/09/09 00:37:54;;;;;;;;;;;;;;;;;;5153974;27;19922;-47
2022/09/09 00:40:29;;;;;;;;;;;;;;;;;;5174643;27;20275;-43
2022/09/09 00:43:30;;;;;;;;;;;;;;;;;;5174969;27;19927;-46
2022/09/09 00:46:22;;;;;;;;;;;;;;;;;;5118749;27;19981;-42
2022/09/09 00:49:09;;;;;;;;;;;;;;;;;;5156347;27;19923;-43
2022/09/09 00:51:36;;;;;;;;;;;;;;;;;;5174708;27;19923;-46
2022/09/09 00:54:15;;;;;;;;;;;;;;;;;;5174956;27;19930;-46
2022/09/09 00:57:06;;;;;;;;;;;;;;;;;;5174761;27;19926;-47
2022/09/09 00:59:36;;;;;;;;;;;;;;;;;;5145485;27;19927;-45
2022/09/09 01:02:30;;;;;;;;;;;;;;;;;;5153823;27;20384;-44
2022/09/09 01:05:19;;;;;;;;;;;;;;;;;;5153513;27;20033;-46
2022/09/09 01:07:48;;;;;;;;;;;;;;;;;;5144753;27;19926;-43
2022/09/09 01:10:34;;;;;;;;;;;;;;;;;;5146575;27;19923;-43
2022/09/09 01:13:05;;;;;;;;;;;;;;;;;;5157953;27;19930;-42
2022/09/09 01:15:34;;;;;;;;;;;;;;;;;;5169032;27;19923;-44
2022/09/09 01:18:06;;;;;;;;;;;;;;;;;;5160003;27;20289;-44
2022/09/09 01:20:36;;;;;;;;;;;;;;;;;;5178629;27;19936;-44
2022/09/09 01:23:16;;;;;;;;;;;;;;;;;;5178537;27;19929;-48
2022/09/09 01:26:11;;;;;;;;;;;;;;;;;;5159827;27;19958;-48
2022/09/09 01:28:38;;;;;;;;;;;;;;;;;;5178464;27;20361;-45
2022/09/09 01:31:14;;;;;;;;;;;;;;;;;;5178325;27;20682;-44
2022/09/09 01:33:44;;;;;;;;;;;;;;;;;;5159674;27;19922;-44
2022/09/09 01:36:35;;;;;;;;;;;;;;;;;;5159749;27;19922;-47
2022/09/09 01:39:03;;;;;;;;;;;;;;;;;;5165644;27;19962;-45
2022/09/09 01:41:33;;;;;;;;;;;;;;;;;;5159506;27;19975;-43
2022/09/09 01:44:05;;;;;;;;;;;;;;;;;;5159422;27;19937;-49
2022/09/09 01:46:34;;;;;;;;;;;;;;;;;;5159705;27;19929;-43
2022/09/09 01:49:03;;;;;;;;;;;;;;;;;;5177755;27;20414;-43
2022/09/09 01:51:31;;;;;;;;;;;;;;;;;;5177880;27;19933;-42
2022/09/09 01:54:03;;;;;;;;;;;;;;;;;;5159223;27;19923;-51
2022/09/09 01:56:51;;;;;;;;;;;;;;;;;;5159295;27;19930;-47
2022/09/09 01:59:33;;;;;;;;;;;;;;;;;;5159096;27;20017;-50
2022/09/09 02:02:04;;;;;;;;;;;;;;;;;;5159155;27;19926;-48
2022/09/09 02:04:31;;;;;;;;;;;;;;;;;;5159041;27;20293;-45
2022/09/09 02:07:00;;;;;;;;;;;;;;;;;;5159268;27;20285;-47
2022/09/09 02:09:30;;;;;;;;;;;;;;;;;;5158754;27;20461;-45
2022/09/09 02:12:01;;;;;;;;;;;;;;;;;;5158390;27;19922;-44
2022/09/09 02:14:42;;;;;;;;;;;;;;;;;;5158848;27;19954;-45
2022/09/09 02:17:10;;;;;;;;;;;;;;;;;;5176218;27;19927;-43
2022/09/09 02:20:07;;;;;;;;;;;;;;;;;;5140214;27;19927;-46
2022/09/09 02:22:45;;;;;;;;;;;;;;;;;;5137543;27;19937;-44
2022/09/09 02:25:16;;;;;;;;;;;;;;;;;;5156064;27;20307;-43
2022/09/09 02:27:45;;;;;;;;;;;;;;;;;;5137617;27;19966;-44
2022/09/09 02:30:15;;;;;;;;;;;;;;;;;;5137381;27;20359;-45
2022/09/09 02:32:49;;;;;;;;;;;;;;;;;;5154263;27;19930;-47
2022/09/09 02:35:22;;;;;;;;;;;;;;;;;;5137658;27;20333;-43
2022/09/09 02:37:51;;;;;;;;;;;;;;;;;;5137991;27;19923;-43
2022/09/09 02:40:20;;;;;;;;;;;;;;;;;;5137531;27;19962;-46
2022/09/09 02:42:55;;;;;;;;;;;;;;;;;;5137782;27;19923;-43
2022/09/09 02:45:28;;;;;;;;;;;;;;;;;;5174064;27;20103;-45
2022/09/09 02:48:05;;;;;;;;;;;;;;;;;;5177006;27;19923;-47
2022/09/09 02:50:33;;;;;;;;;;;;;;;;;;5158058;27;20005;-52
2022/09/09 02:53:20;;;;;;;;;;;;;;;;;;5176476;27;20374;-48
2022/09/09 02:55:50;;;;;;;;;;;;;;;;;;5158064;27;20531;-44
2022/09/09 02:58:20;;;;;;;;;;;;;;;;;;5158061;27;19929;-42
2022/09/09 03:01:02;;;;;;;;;;;;;;;;;;5157392;27;19922;-51
2022/09/09 03:03:31;;;;;;;;;;;;;;;;;;5176282;27;20009;-50
2022/09/09 03:06:01;;;;;;;;;;;;;;;;;;5157565;27;20431;-49
2022/09/09 03:08:28;;;;;;;;;;;;;;;;;;5176208;27;19933;-47
2022/09/09 03:11:00;;;;;;;;;;;;;;;;;;5176617;27;19922;-43
2022/09/09 03:13:31;;;;;;;;;;;;;;;;;;5157583;27;19975;-49
2022/09/09 03:15:59;;;;;;;;;;;;;;;;;;5140737;27;19975;-49
2022/09/09 03:18:30;;;;;;;;;;;;;;;;;;5157520;27;20334;-46
2022/09/09 03:20:59;;;;;;;;;;;;;;;;;;5157611;27;19948;-42
2022/09/09 03:23:28;;;;;;;;;;;;;;;;;;5176012;27;19926;-45
2022/09/09 03:25:58;;;;;;;;;;;;;;;;;;5156821;27;20385;-43
2022/09/09 03:28:35;;;;;;;;;;;;;;;;;;5175777;27;20301;-44
2022/09/09 03:31:04;;;;;;;;;;;;;;;;;;5157533;27;20035;-44
2022/09/09 03:33:37;;;;;;;;;;;;;;;;;;5150886;27;19973;-49
2022/09/09 03:36:07;;;;;;;;;;;;;;;;;;5157345;27;20432;-44
2022/09/09 03:38:34;;;;;;;;;;;;;;;;;;5156949;27;19922;-51
2022/09/09 03:41:02;;;;;;;;;;;;;;;;;;5157070;27;19923;-49
2022/09/09 03:43:29;;;;;;;;;;;;;;;;;;5175465;27;19923;-49
2022/09/09 03:45:58;;;;;;;;;;;;;;;;;;5157042;27;19931;-43
2022/09/09 03:48:27;;;;;;;;;;;;;;;;;;5157279;27;19922;-44
2022/09/09 03:51:00;;;;;;;;;;;;;;;;;;5157007;27;19927;-49
2022/09/09 03:53:31;;;;;;;;;;;;;;;;;;5156614;27;19931;-44
2022/09/09 03:56:02;;;;;;;;;;;;;;;;;;5156630;27;20017;-44
2022/09/09 03:58:29;;;;;;;;;;;;;;;;;;5175471;27;20263;-43
2022/09/09 04:01:04;;;;;;;;;;;;;;;;;;5156126;27;20005;-53
2022/09/09 04:03:33;;;;;;;;;;;;;;;;;;5156479;27;19922;-49
2022/09/09 04:06:03;;;;;;;;;;;;;;;;;;5139693;27;20303;-52
2022/09/09 04:08:31;;;;;;;;;;;;;;;;;;5156326;27;20010;-48
2022/09/09 04:11:01;;;;;;;;;;;;;;;;;;5156515;27;19923;-47
2022/09/09 04:13:29;;;;;;;;;;;;;;;;;;5156626;27;19926;-43
2022/09/09 04:15:58;;;;;;;;;;;;;;;;;;5156811;27;19971;-45
2022/09/09 04:18:30;;;;;;;;;;;;;;;;;;5175165;27;20374;-48
2022/09/09 04:20:58;;;;;;;;;;;;;;;;;;5156502;27;20017;-52
2022/09/09 04:23:29;;;;;;;;;;;;;;;;;;5156265;27;20000;-48
2022/09/09 04:25:58;;;;;;;;;;;;;;;;;;5156656;27;19976;-44
2022/09/09 04:28:28;;;;;;;;;;;;;;;;;;5174097;27;19962;-42
2022/09/09 04:30:56;;;;;;;;;;;;;;;;;;5155615;27;19923;-50
2022/09/09 04:33:26;;;;;;;;;;;;;;;;;;5173454;27;19927;-43
2022/09/09 04:35:53;;;;;;;;;;;;;;;;;;5155385;27;20192;-48
2022/09/09 04:38:23;;;;;;;;;;;;;;;;;;5154988;27;19962;-46
2022/09/09 04:40:53;;;;;;;;;;;;;;;;;;5137381;27;20329;-49
2022/09/09 04:43:22;;;;;;;;;;;;;;;;;;5174452;27;19926;-45
2022/09/09 04:45:51;;;;;;;;;;;;;;;;;;5154135;27;20429;-46
2022/09/09 04:48:21;;;;;;;;;;;;;;;;;;5154169;27;20290;-48
2022/09/09 04:50:58;;;;;;;;;;;;;;;;;;5155188;27;20025;-52
2022/09/09 04:53:26;;;;;;;;;;;;;;;;;;5133141;27;20390;-49
2022/09/09 04:56:03;;;;;;;;;;;;;;;;;;5159792;27;19934;-43
2022/09/09 04:58:34;;;;;;;;;;;;;;;;;;5154810;27;19922;-49
2022/09/09 05:01:08;;;;;;;;;;;;;;;;;;5155717;27;19938;-43
2022/09/09 05:03:38;;;;;;;;;;;;;;;;;;5155255;27;19977;-49
2022/09/09 05:06:09;;;;;;;;;;;;;;;;;;5155982;27;19983;-47
2022/09/09 05:08:40;;;;;;;;;;;;;;;;;;5152547;27;19970;-44
2022/09/09 05:11:25;;;;;;;;;;;;;;;;;;5152344;27;19923;-43
2022/09/09 05:13:57;;;;;;;;;;;;;;;;;;5154138;27;20002;-47
2022/09/09 05:16:24;;;;;;;;;;;;;;;;;;5152435;27;20029;-43
2022/09/09 05:18:52;;;;;;;;;;;;;;;;;;5152050;27;19923;-49
2022/09/09 05:21:21;;;;;;;;;;;;;;;;;;5151744;27;20301;-43
2022/09/09 05:23:48;;;;;;;;;;;;;;;;;;5153454;27;20014;-45
2022/09/09 05:26:18;;;;;;;;;;;;;;;;;;5152277;27;19981;-44
2022/09/09 05:28:50;;;;;;;;;;;;;;;;;;5153495;27;20283;-44
2022/09/09 05:31:18;;;;;;;;;;;;;;;;;;5152041;27;19923;-42
2022/09/09 05:33:49;;;;;;;;;;;;;;;;;;5151845;27;19923;-45
2022/09/09 05:36:18;;;;;;;;;;;;;;;;;;5152011;27;19927;-45
2022/09/09 05:38:47;;;;;;;;;;;;;;;;;;5151491;27;19988;-46
2022/09/09 05:41:15;;;;;;;;;;;;;;;;;;5151357;27;19923;-48
2022/09/09 05:43:44;;;;;;;;;;;;;;;;;;5149955;27;19975;-51
2022/09/09 05:46:14;;;;;;;;;;;;;;;;;;5151461;27;19984;-49
2022/09/09 05:48:42;;;;;;;;;;;;;;;;;;5151200;27;19923;-48
2022/09/09 05:51:12;;;;;;;;;;;;;;;;;;5152638;27;19929;-52
2022/09/09 05:53:40;;;;;;;;;;;;;;;;;;5155477;27;19931;-49
2022/09/09 05:56:12;;;;;;;;;;;;;;;;;;5157205;27;19923;-47
2022/09/09 05:58:39;;;;;;;;;;;;;;;;;;5138419;27;19923;-47
2022/09/09 06:01:14;;;;;;;;;;;;;;;;;;5155612;27;19923;-45
2022/09/09 06:03:45;;;;;;;;;;;;;;;;;;5156454;27;20357;-45
2022/09/09 06:06:13;;;;;;;;;;;;;;;;;;5155614;27;20366;-47
2022/09/09 06:08:44;;;;;;;;;;;;;;;;;;5155637;27;19930;-50
2022/09/09 06:11:14;;;;;;;;;;;;;;;;;;5155614;27;19946;-50
2022/09/09 06:13:42;;;;;;;;;;;;;;;;;;5135161;27;19924;-47
2022/09/09 06:16:11;;;;;;;;;;;;;;;;;;5135869;27;19923;-52
2022/09/09 06:18:41;;;;;;;;;;;;;;;;;;5135950;27;19968;-46
2022/09/09 06:21:11;;;;;;;;;;;;;;;;;;5134529;27;19924;-44
2022/09/09 06:23:40;;;;;;;;;;;;;;;;;;5134078;27;19927;-44
2022/09/09 06:26:12;;;;;;;;;;;;;;;;;;5134126;27;19924;-49
2022/09/09 06:28:42;;;;;;;;;;;;;;;;;;5135741;27;20115;-45
2022/09/09 06:31:11;;;;;;;;;;;;;;;;;;5134362;27;19923;-48
2022/09/09 06:33:41;;;;;;;;;;;;;;;;;;5117707;27;19970;-48
2022/09/09 06:36:12;;;;;;;;;;;;;;;;;;5135642;27;20014;-51
2022/09/09 06:38:39;;;;;;;;;;;;;;;;;;5134170;27;20422;-49
2022/09/09 06:41:07;;;;;;;;;;;;;;;;;;5134100;27;20397;-47
2022/09/09 06:43:35;;;;;;;;;;;;;;;;;;5133936;27;20344;-52
2022/09/09 06:46:05;;;;;;;;;;;;;;;;;;5134429;27;19924;-49
2022/09/09 06:48:32;;;;;;;;;;;;;;;;;;5134315;27;20332;-43
2022/09/09 06:51:01;;;;;;;;;;;;;;;;;;5135262;27;20399;-47
2022/09/09 06:53:29;;;;;;;;;;;;;;;;;;5137365;27;19933;-44
2022/09/09 06:55:57;;;;;;;;;;;;;;;;;;5156165;27;20297;-48
2022/09/09 06:58:24;;;;;;;;;;;;;;;;;;5155855;27;20313;-48
2022/09/09 07:01:04;;;;;;;;;;;;;;;;;;5154341;27;20274;-47
2022/09/09 07:03:33;;;;;;;;;;;;;;;;;;5153337;27;19924;-51
2022/09/09 07:06:01;;;;;;;;;;;;;;;;;;5155746;27;19923;-51
2022/09/09 07:08:28;;;;;;;;;;;;;;;;;;5154143;27;19995;-43
2022/09/09 07:11:04;;;;;;;;;;;;;;;;;;5154485;27;19988;-46
2022/09/09 07:13:37;;;;;;;;;;;;;;;;;;5154569;27;19934;-48
2022/09/09 07:16:10;;;;;;;;;;;;;;;;;;5155536;27;20293;-48
2022/09/09 07:18:39;;;;;;;;;;;;;;;;;;5155709;27;19981;-44
2022/09/09 07:21:08;;;;;;;;;;;;;;;;;;5154392;27;20413;-49
2022/09/09 07:23:35;;;;;;;;;;;;;;;;;;5153652;27;20017;-47
2022/09/09 07:26:07;;;;;;;;;;;;;;;;;;5154940;27;20002;-47
2022/09/09 07:28:35;;;;;;;;;;;;;;;;;;5154267;27;19970;-47
2022/09/09 07:31:03;;;;;;;;;;;;;;;;;;5155350;27;19923;-50
2022/09/09 07:33:33;;;;;;;;;;;;;;;;;;5155043;27;19927;-49
2022/09/09 07:36:12;;;;;;;;;;;;;;;;;;5154069;27;19955;-52
2022/09/09 07:38:41;;;;;;;;;;;;;;;;;;5153953;27;19923;-48
2022/09/09 07:41:14;;;;;;;;;;;;;;;;;;5154109;27;19923;-49
2022/09/09 07:43:42;;;;;;;;;;;;;;;;;;5154644;27;19923;-48
2022/09/09 07:46:11;;;;;;;;;;;;;;;;;;5153773;27;19923;-48
2022/09/09 07:48:43;;;;;;;;;;;;;;;;;;5153951;27;19968;-50
2022/09/09 07:51:13;;;;;;;;;;;;;;;;;;5153703;27;20355;-45
2022/09/09 07:53:40;;;;;;;;;;;;;;;;;;5153256;27;19952;-47
2022/09/09 07:56:09;;;;;;;;;;;;;;;;;;5153879;27;20013;-45
2022/09/09 07:58:38;;;;;;;;;;;;;;;;;;5153675;27;19930;-47
2022/09/09 08:01:17;;;;;;;;;;;;;;;;;;5153388;27;20347;-47
2022/09/09 08:03:52;;;;;;;;;;;;;;;;;;5153115;27;19983;-50
2022/09/09 08:06:24;;;;;;;;;;;;;;;;;;5154244;27;19927;-49
2022/09/09 08:08:54;;;;;;;;;;;;;;;;;;5152779;27;19934;-46
2022/09/09 08:11:24;;;;;;;;;;;;;;;;;;5153035;27;20366;-48
2022/09/09 08:13:51;;;;;;;;;;;;;;;;;;5153156;27;19923;-49
2022/09/09 08:16:22;;;;;;;;;;;;;;;;;;5153516;27;19923;-49
2022/09/09 08:18:51;;;;;;;;;;;;;;;;;;5152828;27;19991;-50
2022/09/09 08:21:21;;;;;;;;;;;;;;;;;;5152824;27;19962;-44
2022/09/09 08:23:51;;;;;;;;;;;;;;;;;;5152621;27;20011;-47
2022/09/09 08:26:34;;;;;;;;;;;;;;;;;;5152865;27;20014;-52
2022/09/09 08:29:03;;;;;;;;;;;;;;;;;;5152957;27;19998;-45
2022/09/09 08:31:35;;;;;;;;;;;;;;;;;;5152367;27;19927;-53
2022/09/09 08:34:05;;;;;;;;;;;;;;;;;;5152998;27;19971;-46
2022/09/09 08:36:35;;;;;;;;;;;;;;;;;;5152657;27;19937;-49
2022/09/09 08:39:03;;;;;;;;;;;;;;;;;;5152816;27;19959;-46
2022/09/09 08:41:46;;;;;;;;;;;;;;;;;;5153809;27;19979;-47
2022/09/09 08:44:19;;;;;;;;;;;;;;;;;;5154091;27;19923;-49
2022/09/09 08:47:06;;;;;;;;;;;;;;;;;;5154050;27;20335;-49
2022/09/09 08:49:36;;;;;;;;;;;;;;;;;;5152549;27;19929;-51
2022/09/09 08:52:10;;;;;;;;;;;;;;;;;;5152592;27;19927;-50
2022/09/09 08:54:38;;;;;;;;;;;;;;;;;;5152376;27;19923;-51
2022/09/09 08:57:21;;;;;;;;;;;;;;;;;;5152435;27;19927;-47
2022/09/09 08:59:50;;;;;;;;;;;;;;;;;;5152557;27;19987;-48
2022/09/09 09:02:21;;;;;;;;;;;;;;;;;;5153693;27;20034;-49
2022/09/09 09:04:58;;;;;;;;;;;;;;;;;;5152558;27;19927;-48
2022/09/09 09:07:30;;;;;;;;;;;;;;;;;;5154931;27;20438;-47
2022/09/09 09:10:04;;;;;;;;;;;;;;;;;;5156029;27;20445;-51
2022/09/09 09:12:47;;;;;;;;;;;;;;;;;;5155766;27;19927;-48
2022/09/09 09:15:25;;;;;;;;;;;;;;;;;;5155612;27;20454;-48
2022/09/09 09:17:55;;;;;;;;;;;;;;;;;;5155894;27;20082;-48
2022/09/09 09:20:59;;;;;;;;;;;;;;;;;;5155833;27;19923;-48
2022/09/09 09:23:33;;;;;;;;;;;;;;;;;;5052789;28;20403;-49
2022/09/09 09:26:00;;;;;;;;;;;;;;;;;;5159187;27;20327;-50
2022/09/09 09:28:32;;;;;;;;;;;;;;;;;;5159422;27;20010;-50
2022/09/09 09:31:08;;;;;;;;;;;;;;;;;;5159566;27;20295;-48
2022/09/09 09:33:44;;;;;;;;;;;;;;;;;;5177931;27;20395;-49
2022/09/09 09:36:15;;;;;;;;;;;;;;;;;;5178257;27;20274;-50
2022/09/09 09:38:53;;;;;;;;;;;;;;;;;;5159699;27;19934;-48
2022/09/09 09:41:42;;;;;;;;;;;;;;;;;;5159360;27;20002;-50
2022/09/09 09:44:23;;;;;;;;;;;;;;;;;;5159577;27;20324;-47
2022/09/09 09:46:51;;;;;;;;;;;;;;;;;;5178200;27;19922;-48
2022/09/09 09:49:19;;;;;;;;;;;;;;;;;;5159490;27;19923;-52
2022/09/09 09:51:46;;;;;;;;;;;;;;;;;;5159533;27;19926;-45
2022/09/09 09:54:15;;;;;;;;;;;;;;;;;;5159388;27;19929;-48
2022/09/09 09:56:47;;;;;;;;;;;;;;;;;;5159196;27;20021;-44
2022/09/09 09:59:23;;;;;;;;;;;;;;;;;;5159272;27;20296;-44
2022/09/09 10:02:26;;;;;;;;;;;;;;;;;;5159279;27;20013;-47
2022/09/09 10:05:03;;;;;;;;;;;;;;;;;;5177652;27;20293;-44
2022/09/09 10:07:33;;;;;;;;;;;;;;;;;;5155434;27;20017;-45
2022/09/09 10:10:01;;;;;;;;;;;;;;;;;;5157127;27;19968;-45
2022/09/09 10:12:34;;;;;;;;;;;;;;;;;;5156868;27;19923;-50
2022/09/09 10:15:08;;;;;;;;;;;;;;;;;;5156819;27;19970;-49
2022/09/09 10:17:41;;;;;;;;;;;;;;;;;;5156407;27;19927;-48
2022/09/09 10:20:19;;;;;;;;;;;;;;;;;;5156909;27;19963;-47
2022/09/09 10:22:57;;;;;;;;;;;;;;;;;;5153742;27;19927;-45
2022/09/09 10:25:27;;;;;;;;;;;;;;;;;;5156226;27;20413;-49
2022/09/09 10:28:06;;;;;;;;;;;;;;;;;;5156248;27;20390;-44
2022/09/09 10:30:53;;;;;;;;;;;;;;;;;;5156482;27;19961;-47
2022/09/09 10:33:37;;;;;;;;;;;;;;;;;;5156415;27;20336;-50
2022/09/09 10:36:18;;;;;;;;;;;;;;;;;;5156182;27;20290;-50
2022/09/09 10:38:47;;;;;;;;;;;;;;;;;;5155435;27;20022;-52
2022/09/09 10:41:33;;;;;;;;;;;;;;;;;;5156610;27;20260;-48
2022/09/09 10:44:00;;;;;;;;;;;;;;;;;;5156305;27;19966;-48
2022/09/09 10:46:41;;;;;;;;;;;;;;;;;;5156265;27;19929;-47
2022/09/09 10:49:18;;;;;;;;;;;;;;;;;;5156042;27;19923;-51
2022/09/09 10:51:58;;;;;;;;;;;;;;;;;;5155894;27;19975;-50
2022/09/09 10:54:30;;;;;;;;;;;;;;;;;;5155825;27;19931;-46
2022/09/09 10:57:18;;;;;;;;;;;;;;;;;;5155477;27;20271;-49
2022/09/09 10:59:48;;;;;;;;;;;;;;;;;;5142476;27;19923;-44
2022/09/09 11:02:29;;;;;;;;;;;;;;;;;;5154573;27;20026;-46
2022/09/09 11:05:05;;;;;;;;;;;;;;;;;;5155689;27;19927;-46
2022/09/09 11:07:48;;;;;;;;;;;;;;;;;;5158962;27;19923;-53
2022/09/09 11:10:25;;;;;;;;;;;;;;;;;;5176479;27;19966;-48
2022/09/09 11:12:55;;;;;;;;;;;;;;;;;;5176313;27;19923;-52
2022/09/09 11:15:31;;;;;;;;;;;;;;;;;;5176245;27;19922;-49
2022/09/09 11:18:01;;;;;;;;;;;;;;;;;;5175876;27;19927;-50
2022/09/09 11:20:28;;;;;;;;;;;;;;;;;;5176035;27;19923;-49
2022/09/09 11:23:09;;;;;;;;;;;;;;;;;;5176071;27;19922;-50
2022/09/09 11:25:40;;;;;;;;;;;;;;;;;;5175892;27;19934;-45
2022/09/09 11:28:20;;;;;;;;;;;;;;;;;;5176134;27;19944;-49
2022/09/09 11:31:07;;;;;;;;;;;;;;;;;;5176266;27;19923;-49
2022/09/09 11:33:57;;;;;;;;;;;;;;;;;;5176078;27;19994;-46
2022/09/09 11:36:31;;;;;;;;;;;;;;;;;;5162805;27;19923;-44
2022/09/09 11:39:06;;;;;;;;;;;;;;;;;;5175743;27;19922;-52
2022/09/09 11:41:34;;;;;;;;;;;;;;;;;;5175706;27;19971;-45
2022/09/09 11:44:10;;;;;;;;;;;;;;;;;;5175718;27;20378;-49
2022/09/09 11:46:38;;;;;;;;;;;;;;;;;;5175699;27;19956;-48
2022/09/09 11:49:06;;;;;;;;;;;;;;;;;;5175569;27;19946;-50
2022/09/09 11:51:35;;;;;;;;;;;;;;;;;;5175667;27;19922;-50
2022/09/09 11:54:02;;;;;;;;;;;;;;;;;;5175834;27;19922;-50
2022/09/09 11:56:31;;;;;;;;;;;;;;;;;;5175816;27;19967;-48
2022/09/09 11:59:01;;;;;;;;;;;;;;;;;;5175651;27;19929;-50
2022/09/09 12:01:36;;;;;;;;;;;;;;;;;;5175546;27;20290;-51
2022/09/09 12:04:09;;;;;;;;;;;;;;;;;;5175264;27;19929;-48
2022/09/09 12:06:46;;;;;;;;;;;;;;;;;;5175502;27;19927;-47
2022/09/09 12:09:25;;;;;;;;;;;;;;;;;;5175319;27;19926;-45
2022/09/09 12:12:04;;;;;;;;;;;;;;;;;;5175410;27;19923;-44
2022/09/09 12:14:36;;;;;;;;;;;;;;;;;;5174658;27;19929;-48
2022/09/09 12:17:18;;;;;;;;;;;;;;;;;;5175583;27;19968;-49
2022/09/09 12:19:46;;;;;;;;;;;;;;;;;;5175770;27;19923;-50
2022/09/09 12:22:24;;;;;;;;;;;;;;;;;;5175380;27;19923;-48
2022/09/09 12:24:52;;;;;;;;;;;;;;;;;;5174899;27;20013;-45
2022/09/09 12:27:26;;;;;;;;;;;;;;;;;;5174940;27;19927;-47
2022/09/09 12:29:58;;;;;;;;;;;;;;;;;;5175052;27;20298;-46
2022/09/09 12:32:28;;;;;;;;;;;;;;;;;;5175269;27;19923;-52
2022/09/09 12:34:59;;;;;;;;;;;;;;;;;;5174897;27;20407;-52
2022/09/09 12:37:27;;;;;;;;;;;;;;;;;;5174932;27;19929;-49
2022/09/09 12:39:59;;;;;;;;;;;;;;;;;;5175045;27;20234;-45
2022/09/09 12:42:26;;;;;;;;;;;;;;;;;;5174950;27;19927;-44
2022/09/09 12:44:55;;;;;;;;;;;;;;;;;;5174658;27;19949;-43
2022/09/09 12:47:35;;;;;;;;;;;;;;;;;;5174549;27;20377;-44
2022/09/09 12:50:03;;;;;;;;;;;;;;;;;;5170703;27;20009;-44
2022/09/09 12:52:33;;;;;;;;;;;;;;;;;;5175004;27;20009;-47
2022/09/09 12:55:02;;;;;;;;;;;;;;;;;;5174850;27;19922;-47
2022/09/09 12:57:33;;;;;;;;;;;;;;;;;;5174493;27;19930;-53
2022/09/09 13:00:10;;;;;;;;;;;;;;;;;;5174408;27;19926;-46
2022/09/09 13:02:44;;;;;;;;;;;;;;;;;;5177443;27;20011;-46
2022/09/09 13:05:16;;;;;;;;;;;;;;;;;;5178640;27;19930;-49
2022/09/09 13:07:44;;;;;;;;;;;;;;;;;;5179054;27;19927;-48
2022/09/09 13:10:12;;;;;;;;;;;;;;;;;;5178978;27;19923;-48
2022/09/09 13:12:43;;;;;;;;;;;;;;;;;;5160388;27;19944;-45
2022/09/09 13:15:20;;;;;;;;;;;;;;;;;;5178859;27;19922;-49
2022/09/09 13:17:52;;;;;;;;;;;;;;;;;;5179185;27;19927;-48
2022/09/09 13:20:20;;;;;;;;;;;;;;;;;;5178611;27;19929;-47
2022/09/09 13:22:48;;;;;;;;;;;;;;;;;;5178879;27;20283;-49
2022/09/09 13:25:25;;;;;;;;;;;;;;;;;;5178650;27;19923;-48
2022/09/09 13:28:01;;;;;;;;;;;;;;;;;;5178634;27;19929;-49
2022/09/09 13:30:33;;;;;;;;;;;;;;;;;;5178694;27;19995;-49
2022/09/09 13:33:03;;;;;;;;;;;;;;;;;;5178070;27;19975;-47
2022/09/09 13:35:31;;;;;;;;;;;;;;;;;;5178287;27;19938;-46
2022/09/09 13:38:00;;;;;;;;;;;;;;;;;;5178371;27;20298;-46
2022/09/09 13:40:28;;;;;;;;;;;;;;;;;;5178331;27;19926;-47
2022/09/09 13:42:56;;;;;;;;;;;;;;;;;;5178573;27;20285;-51
2022/09/09 13:45:26;;;;;;;;;;;;;;;;;;5177996;27;19922;-49
2022/09/09 13:47:55;;;;;;;;;;;;;;;;;;5178103;27;19930;-46
2022/09/09 13:50:22;;;;;;;;;;;;;;;;;;5178195;27;19927;-49
2022/09/09 13:52:53;;;;;;;;;;;;;;;;;;5177640;27;19923;-47
2022/09/09 13:55:21;;;;;;;;;;;;;;;;;;5177913;27;20412;-45
2022/09/09 13:57:56;;;;;;;;;;;;;;;;;;5178084;27;19923;-46
2022/09/09 14:00:24;;;;;;;;;;;;;;;;;;5177802;27;19929;-49
2022/09/09 14:02:51;;;;;;;;;;;;;;;;;;5178021;27;19929;-50
2022/09/09 14:05:19;;;;;;;;;;;;;;;;;;5177885;27;19927;-44
2022/09/09 14:07:46;;;;;;;;;;;;;;;;;;5177912;27;19923;-50
2022/09/09 14:10:18;;;;;;;;;;;;;;;;;;5176705;27;19937;-44
2022/09/09 14:12:46;;;;;;;;;;;;;;;;;;5177387;27;20289;-46
2022/09/09 14:15:14;;;;;;;;;;;;;;;;;;5142312;27;19962;-49
2022/09/09 14:17:41;;;;;;;;;;;;;;;;;;5177195;27;20381;-51
2022/09/09 14:20:11;;;;;;;;;;;;;;;;;;5177663;27;19923;-49
2022/09/09 14:22:41;;;;;;;;;;;;;;;;;;5177394;27;20349;-45
2022/09/09 14:25:08;;;;;;;;;;;;;;;;;;5177062;27;19934;-49
2022/09/09 14:27:35;;;;;;;;;;;;;;;;;;5177455;27;20757;-50
2022/09/09 14:30:04;;;;;;;;;;;;;;;;;;5177195;27;19922;-49
2022/09/09 14:32:31;;;;;;;;;;;;;;;;;;5177561;27;19931;-52
2022/09/09 14:34:58;;;;;;;;;;;;;;;;;;5177361;27;19942;-50
2022/09/09 14:37:27;;;;;;;;;;;;;;;;;;5177234;27;19929;-49
2022/09/09 14:39:54;;;;;;;;;;;;;;;;;;5177256;27;19951;-48
2022/09/09 14:42:22;;;;;;;;;;;;;;;;;;5177121;27;19927;-46
2022/09/09 14:44:49;;;;;;;;;;;;;;;;;;5177063;27;19929;-50
2022/09/09 14:47:17;;;;;;;;;;;;;;;;;;5177428;27;19922;-43
2022/09/09 14:49:45;;;;;;;;;;;;;;;;;;5177361;27;19923;-45
2022/09/09 14:52:12;;;;;;;;;;;;;;;;;;5176697;27;19930;-48
2022/09/09 14:54:40;;;;;;;;;;;;;;;;;;5176821;27;19923;-47
2022/09/09 14:57:07;;;;;;;;;;;;;;;;;;5176723;27;20390;-47
2022/09/09 14:59:34;;;;;;;;;;;;;;;;;;5176758;27;20349;-44
2022/09/09 15:02:03;;;;;;;;;;;;;;;;;;5176434;27;19923;-46
2022/09/09 15:04:33;;;;;;;;;;;;;;;;;;5176321;27;19958;-45
2022/09/09 15:07:00;;;;;;;;;;;;;;;;;;5176152;27;19944;-50
2022/09/09 15:09:27;;;;;;;;;;;;;;;;;;5176382;27;20072;-48
2022/09/09 15:11:54;;;;;;;;;;;;;;;;;;5176651;27;19922;-51
2022/09/09 15:14:23;;;;;;;;;;;;;;;;;;5176364;27;20005;-46
2022/09/09 15:16:51;;;;;;;;;;;;;;;;;;5176259;27;20305;-47
2022/09/09 15:19:18;;;;;;;;;;;;;;;;;;5176379;27;20006;-43
2022/09/09 15:21:46;;;;;;;;;;;;;;;;;;5176398;27;19926;-45
2022/09/09 15:24:13;;;;;;;;;;;;;;;;;;5175663;27;20013;-50
2022/09/09 15:26:40;;;;;;;;;;;;;;;;;;5176403;27;19930;-46
2022/09/09 15:29:08;;;;;;;;;;;;;;;;;;5175946;27;19923;-45
2022/09/09 15:31:37;;;;;;;;;;;;;;;;;;5157419;27;20322;-46
2022/09/09 15:34:05;;;;;;;;;;;;;;;;;;5175928;27;19967;-49
2022/09/09 15:36:36;;;;;;;;;;;;;;;;;;5175489;27;19923;-48
2022/09/09 15:39:04;;;;;;;;;;;;;;;;;;5175837;27;19923;-50
2022/09/09 15:41:32;;;;;;;;;;;;;;;;;;5175622;27;19945;-51
2022/09/09 15:44:00;;;;;;;;;;;;;;;;;;5175670;27;20021;-44
2022/09/09 15:46:30;;;;;;;;;;;;;;;;;;5175041;27;20021;-47
2022/09/09 15:49:02;;;;;;;;;;;;;;;;;;5175382;27;20710;-46
2022/09/09 15:51:30;;;;;;;;;;;;;;;;;;5175464;27;19958;-44
2022/09/09 15:54:10;;;;;;;;;;;;;;;;;;5168548;27;19923;-45
2022/09/09 15:56:38;;;;;;;;;;;;;;;;;;5154294;27;20439;-46
2022/09/09 15:59:05;;;;;;;;;;;;;;;;;;5154648;27;20386;-44
2022/09/09 16:01:33;;;;;;;;;;;;;;;;;;5154310;27;19923;-52
2022/09/09 16:04:01;;;;;;;;;;;;;;;;;;5164660;27;20416;-44
2022/09/09 16:06:29;;;;;;;;;;;;;;;;;;5174566;27;20309;-44
2022/09/09 16:08:57;;;;;;;;;;;;;;;;;;5175357;27;19923;-50
2022/09/09 16:11:32;;;;;;;;;;;;;;;;;;5175273;27;20357;-51
2022/09/09 16:14:03;;;;;;;;;;;;;;;;;;5175478;27;20458;-44
2022/09/09 16:16:30;;;;;;;;;;;;;;;;;;5175360;27;19970;-45
2022/09/09 16:18:59;;;;;;;;;;;;;;;;;;5175197;27;19922;-45
2022/09/09 16:21:46;;;;;;;;;;;;;;;;;;5174975;27;19927;-52
2022/09/09 16:24:14;;;;;;;;;;;;;;;;;;5174788;27;19965;-43
2022/09/09 16:26:46;;;;;;;;;;;;;;;;;;5174871;27;19926;-44
2022/09/09 16:29:14;;;;;;;;;;;;;;;;;;5175053;27;19945;-44
2022/09/09 16:31:41;;;;;;;;;;;;;;;;;;5175059;27;19934;-48
2022/09/09 16:34:09;;;;;;;;;;;;;;;;;;5156557;27;20010;-47
2022/09/09 16:36:38;;;;;;;;;;;;;;;;;;5173782;27;19929;-47
2022/09/09 16:39:10;;;;;;;;;;;;;;;;;;5174358;27;19949;-48
2022/09/09 16:41:38;;;;;;;;;;;;;;;;;;5174597;27;19923;-50
2022/09/09 16:44:06;;;;;;;;;;;;;;;;;;5155976;27;19923;-50
2022/09/09 16:46:35;;;;;;;;;;;;;;;;;;5174788;27;19927;-50
2022/09/09 16:49:04;;;;;;;;;;;;;;;;;;5174288;27;20377;-44
2022/09/09 16:51:33;;;;;;;;;;;;;;;;;;5174786;27;19926;-46
2022/09/09 16:54:02;;;;;;;;;;;;;;;;;;5174267;27;20025;-43
2022/09/09 16:56:30;;;;;;;;;;;;;;;;;;5174424;27;19930;-44
2022/09/09 16:58:58;;;;;;;;;;;;;;;;;;5174720;27;20398;-44
2022/09/09 17:01:26;;;;;;;;;;;;;;;;;;5174483;27;19948;-44
2022/09/09 17:03:57;;;;;;;;;;;;;;;;;;5174827;27;19923;-46
2022/09/09 17:06:28;;;;;;;;;;;;;;;;;;5174819;27;19923;-46
2022/09/09 17:08:56;;;;;;;;;;;;;;;;;;5174549;27;19922;-51
2022/09/09 17:11:24;;;;;;;;;;;;;;;;;;5174576;27;20412;-43
2022/09/09 17:13:54;;;;;;;;;;;;;;;;;;5174891;27;19923;-44
2022/09/09 17:16:23;;;;;;;;;;;;;;;;;;5174729;27;20013;-46
2022/09/09 17:18:51;;;;;;;;;;;;;;;;;;5174886;27;19979;-47